Time;durP1;ratioP1;P1;durP2;ratioP2;P2;SDS_P1;SDS_P2;PMS_P1;PMS_P2;Temp;Humidity;BMP_temperature;BMP_pressure;BME280_temperature;BME280_humidity;BME280_pressure;Samples;Min_cycle;Max_cycle;Signal;HPM_P1;HPM_P2
2022/11/13 00:01:39;;;;;;;27.90;16.63;;;;;;;;;;6247235;23;20023;-65
2022/11/13 00:04:05;;;;;;;26.70;16.85;;;;;;;;;;6220409;23;20043;-65
2022/11/13 00:06:31;;;;;;;25.75;16.77;;;;;;;;;;6247408;23;20087;-65
2022/11/13 00:08:57;;;;;;;26.38;17.40;;;;;;;;;;6247361;22;20016;-65
2022/11/13 00:11:23;;;;;;;26.92;16.40;;;;;;;;;;6247092;23;20091;-65
2022/11/13 00:13:49;;;;;;;22.50;15.13;;;;;;;;;;6247113;23;20019;-65
2022/11/13 00:16:17;;;;;;;29.08;16.08;;;;;;;;;;6220103;23;20019;-65
2022/11/13 00:18:43;;;;;;;24.38;16.67;;;;;;;;;;6246998;23;20031;-65
2022/11/13 00:21:17;;;;;;;30.02;17.60;;;;;;;;;;6220023;23;20008;-65
2022/11/13 00:23:43;;;;;;;30.52;18.00;;;;;;;;;;6219710;23;20334;-65
2022/11/13 00:26:10;;;;;;;27.15;17.40;;;;;;;;;;6220029;23;20338;-65
2022/11/13 00:28:36;;;;;;;26.08;17.52;;;;;;;;;;6247008;23;20016;-66
2022/11/13 00:31:04;;;;;;;27.42;19.10;;;;;;;;;;6220089;23;20037;-65
2022/11/13 00:33:30;;;;;;;26.02;16.65;;;;;;;;;;6246967;23;20012;-65
2022/11/13 00:36:03;;;;;;;28.70;17.98;;;;;;;;;;6220029;23;20020;-65
2022/11/13 00:38:29;;;;;;;31.65;18.92;;;;;;;;;;6220082;23;20070;-65
2022/11/13 00:40:55;;;;;;;27.73;18.30;;;;;;;;;;6219921;23;20087;-65
2022/11/13 00:43:21;;;;;;;31.05;18.05;;;;;;;;;;6220197;23;20024;-65
2022/11/13 00:45:47;;;;;;;30.92;18.25;;;;;;;;;;6246924;23;20008;-65
2022/11/13 00:48:13;;;;;;;30.17;18.30;;;;;;;;;;6219903;23;20342;-65
2022/11/13 00:50:39;;;;;;;29.90;18.85;;;;;;;;;;6219889;23;20016;-65
2022/11/13 00:53:05;;;;;;;27.83;17.83;;;;;;;;;;6194543;23;20020;-65
2022/11/13 00:55:31;;;;;;;24.30;16.67;;;;;;;;;;6246673;23;20019;-65
2022/11/13 00:57:57;;;;;;;28.80;18.35;;;;;;;;;;6219934;23;20016;-65
2022/11/13 01:00:23;;;;;;;31.38;20.00;;;;;;;;;;6246757;23;20016;-65
2022/11/13 01:02:49;;;;;;;30.25;18.65;;;;;;;;;;6219777;23;20016;-65
2022/11/13 01:05:15;;;;;;;30.13;18.48;;;;;;;;;;6219938;23;20020;-65
2022/11/13 01:07:41;;;;;;;35.15;18.42;;;;;;;;;;6219551;22;20016;-65
2022/11/13 01:10:08;;;;;;;31.23;17.33;;;;;;;;;;6219761;23;20016;-65
2022/11/13 01:12:34;;;;;;;29.33;17.60;;;;;;;;;;6219730;23;20016;-65
2022/11/13 01:15:00;;;;;;;28.95;17.98;;;;;;;;;;6194685;23;20065;-65
2022/11/13 01:17:26;;;;;;;32.17;18.75;;;;;;;;;;6219880;23;20020;-65
2022/11/13 01:19:52;;;;;;;26.10;18.55;;;;;;;;;;6219469;23;20055;-65
2022/11/13 01:22:18;;;;;;;32.33;17.95;;;;;;;;;;6194515;23;20052;-65
2022/11/13 01:24:45;;;;;;;31.40;18.67;;;;;;;;;;6246499;23;20462;-65
2022/11/13 01:27:12;;;;;;;33.97;18.45;;;;;;;;;;6246279;23;20412;-65
2022/11/13 01:29:38;;;;;;;32.50;17.95;;;;;;;;;;6220031;23;20062;-65
2022/11/13 01:32:04;;;;;;;28.00;17.20;;;;;;;;;;6219580;23;20016;-65
2022/11/13 01:34:30;;;;;;;29.48;17.67;;;;;;;;;;6219252;23;20070;-66
2022/11/13 01:36:56;;;;;;;26.40;16.50;;;;;;;;;;6219340;23;20020;-65
2022/11/13 01:39:22;;;;;;;27.08;18.42;;;;;;;;;;6219532;23;20018;-65
2022/11/13 01:41:48;;;;;;;26.08;17.08;;;;;;;;;;6246221;23;20012;-65
2022/11/13 01:44:16;;;;;;;28.83;17.23;;;;;;;;;;6194462;23;20013;-65
2022/11/13 01:46:44;;;;;;;25.60;16.75;;;;;;;;;;6219388;23;20016;-65
2022/11/13 01:49:10;;;;;;;26.35;16.42;;;;;;;;;;6246046;23;20505;-65
2022/11/13 01:51:39;;;;;;;27.80;17.13;;;;;;;;;;6245960;23;20016;-65
2022/11/13 01:54:08;;;;;;;26.48;16.83;;;;;;;;;;6246184;23;20375;-65
2022/11/13 01:56:34;;;;;;;28.05;17.10;;;;;;;;;;6246295;23;20019;-66
2022/11/13 01:59:08;;;;;;;25.75;17.30;;;;;;;;;;6219368;23;20012;-65
2022/11/13 02:01:35;;;;;;;27.67;17.35;;;;;;;;;;6219181;23;20091;-65
2022/11/13 02:04:01;;;;;;;25.70;16.88;;;;;;;;;;6246046;23;20092;-65
2022/11/13 02:06:30;;;;;;;26.65;16.58;;;;;;;;;;6219219;23;20381;-65
2022/11/13 02:08:56;;;;;;;32.40;16.73;;;;;;;;;;6246081;22;20012;-65
2022/11/13 02:11:22;;;;;;;25.75;16.80;;;;;;;;;;6246521;23;20133;-65
2022/11/13 02:13:48;;;;;;;28.00;17.58;;;;;;;;;;6219185;23;20065;-65
2022/11/13 02:16:14;;;;;;;27.65;17.17;;;;;;;;;;6246416;23;20016;-65
2022/11/13 02:18:41;;;;;;;28.95;15.80;;;;;;;;;;6218997;23;20510;-65
2022/11/13 02:21:33;;;;;;;29.00;17.17;;;;;;;;;;6218968;23;20012;-65
2022/11/13 02:24:11;;;;;;;29.33;18.63;;;;;;;;;;6174302;23;20012;-65
2022/11/13 02:26:37;;;;;;;26.10;17.83;;;;;;;;;;6245900;23;20449;-65
2022/11/13 02:29:04;;;;;;;29.45;18.00;;;;;;;;;;6219194;23;20016;-65
2022/11/13 02:31:30;;;;;;;29.92;18.27;;;;;;;;;;6219193;23;20044;-65
2022/11/13 02:33:56;;;;;;;29.05;18.52;;;;;;;;;;6246009;23;20039;-65
2022/11/13 02:36:23;;;;;;;29.88;18.58;;;;;;;;;;6219085;23;20016;-65
2022/11/13 02:38:50;;;;;;;31.02;17.90;;;;;;;;;;6219013;23;20012;-65
2022/11/13 02:41:16;;;;;;;26.75;16.70;;;;;;;;;;6245943;23;20439;-65
2022/11/13 02:43:42;;;;;;;25.88;17.55;;;;;;;;;;6218792;23;20016;-66
2022/11/13 02:46:08;;;;;;;28.63;18.83;;;;;;;;;;6194593;23;20016;-65
2022/11/13 02:48:34;;;;;;;25.58;17.17;;;;;;;;;;6221010;23;20016;-65
2022/11/13 02:51:01;;;;;;;23.17;16.85;;;;;;;;;;6247879;23;20012;-65
2022/11/13 02:53:27;;;;;;;25.23;16.08;;;;;;;;;;6221022;23;20016;-65
2022/11/13 02:55:53;;;;;;;30.08;19.65;;;;;;;;;;6248033;23;20008;-65
2022/11/13 02:58:19;;;;;;;29.13;18.15;;;;;;;;;;6195909;23;20074;-65
2022/11/13 03:00:45;;;;;;;29.17;18.05;;;;;;;;;;6220993;23;20410;-65
2022/11/13 03:03:11;;;;;;;27.00;17.92;;;;;;;;;;6220973;23;20020;-65
2022/11/13 03:05:37;;;;;;;31.17;17.85;;;;;;;;;;6247879;23;20012;-65
2022/11/13 03:08:03;;;;;;;30.50;17.70;;;;;;;;;;6247594;22;20016;-65
2022/11/13 03:10:29;;;;;;;25.65;18.02;;;;;;;;;;6220775;23;20016;-65
2022/11/13 03:12:55;;;;;;;26.30;16.42;;;;;;;;;;6247774;23;20027;-65
2022/11/13 03:15:21;;;;;;;25.50;16.48;;;;;;;;;;6247806;23;20015;-65
2022/11/13 03:17:48;;;;;;;26.60;17.25;;;;;;;;;;6247466;23;20422;-66
2022/11/13 03:20:14;;;;;;;26.15;17.73;;;;;;;;;;6188181;23;20032;-65
2022/11/13 03:22:40;;;;;;;26.80;17.80;;;;;;;;;;6187356;23;20080;-65
2022/11/13 03:25:06;;;;;;;27.65;17.73;;;;;;;;;;6187585;23;20017;-65
2022/11/13 03:27:32;;;;;;;26.38;16.08;;;;;;;;;;6187062;23;20447;-65
2022/11/13 03:29:58;;;;;;;25.30;16.77;;;;;;;;;;6187522;23;20067;-65
2022/11/13 03:32:24;;;;;;;26.00;16.40;;;;;;;;;;6187203;23;20095;-65
2022/11/13 03:34:50;;;;;;;25.10;15.43;;;;;;;;;;6185578;23;20013;-65
2022/11/13 03:37:16;;;;;;;32.10;17.85;;;;;;;;;;6185678;23;20021;-65
2022/11/13 03:39:42;;;;;;;27.08;17.80;;;;;;;;;;6185362;23;20017;-65
2022/11/13 03:42:08;;;;;;;27.38;17.50;;;;;;;;;;6185485;23;20098;-65
2022/11/13 03:44:34;;;;;;;31.08;17.60;;;;;;;;;;6185313;23;20024;-65
2022/11/13 03:47:01;;;;;;;27.08;17.38;;;;;;;;;;6187316;23;20021;-65
2022/11/13 03:49:27;;;;;;;27.98;18.73;;;;;;;;;;6187127;23;20013;-65
2022/11/13 03:51:53;;;;;;;30.40;19.38;;;;;;;;;;6185211;23;20440;-65
2022/11/13 03:54:19;;;;;;;29.98;19.08;;;;;;;;;;6185062;23;20116;-66
2022/11/13 03:56:45;;;;;;;27.48;17.83;;;;;;;;;;6184903;23;20017;-66
2022/11/13 03:59:11;;;;;;;32.38;19.58;;;;;;;;;;6184793;23;20103;-65
2022/11/13 04:01:37;;;;;;;30.00;18.67;;;;;;;;;;6185094;23;20017;-65
2022/11/13 04:04:03;;;;;;;29.25;18.48;;;;;;;;;;6185215;23;20020;-65
2022/11/13 04:06:29;;;;;;;29.70;18.02;;;;;;;;;;6185299;23;20017;-65
2022/11/13 04:08:56;;;;;;;31.65;19.08;;;;;;;;;;6186560;23;20367;-65
2022/11/13 04:11:22;;;;;;;30.10;18.13;;;;;;;;;;6185177;23;20017;-65
2022/11/13 04:13:48;;;;;;;32.47;19.13;;;;;;;;;;6186602;23;20021;-65
2022/11/13 04:16:14;;;;;;;30.70;18.30;;;;;;;;;;6185122;23;20017;-65
2022/11/13 04:18:40;;;;;;;29.23;18.75;;;;;;;;;;6202541;23;20091;-65
2022/11/13 04:21:06;;;;;;;30.65;18.50;;;;;;;;;;6220415;23;20027;-65
2022/11/13 04:23:32;;;;;;;32.75;18.50;;;;;;;;;;6247357;23;20019;-65
2022/11/13 04:25:58;;;;;;;32.35;19.15;;;;;;;;;;6220234;23;20438;-65
2022/11/13 04:28:24;;;;;;;29.60;19.13;;;;;;;;;;6220340;23;20020;-65
2022/11/13 04:30:52;;;;;;;27.52;18.77;;;;;;;;;;6220344;23;20461;-65
2022/11/13 04:33:19;;;;;;;30.10;19.75;;;;;;;;;;6247264;23;20031;-65
2022/11/13 04:35:45;;;;;;;31.33;19.50;;;;;;;;;;6247303;23;20015;-65
2022/11/13 04:38:11;;;;;;;34.30;19.08;;;;;;;;;;6247292;23;20012;-65
2022/11/13 04:40:38;;;;;;;29.15;19.38;;;;;;;;;;6219948;23;20027;-65
2022/11/13 04:43:04;;;;;;;33.92;20.02;;;;;;;;;;6195107;23;20020;-65
2022/11/13 04:45:30;;;;;;;31.80;19.15;;;;;;;;;;6219809;23;20346;-65
2022/11/13 04:47:56;;;;;;;31.25;19.85;;;;;;;;;;6194930;23;20099;-65
2022/11/13 04:50:22;;;;;;;31.98;20.10;;;;;;;;;;6247147;23;20012;-65
2022/11/13 04:52:48;;;;;;;33.88;19.05;;;;;;;;;;6247186;23;20057;-65
2022/11/13 04:55:15;;;;;;;26.58;18.25;;;;;;;;;;6246777;23;20019;-65
2022/11/13 04:57:41;;;;;;;32.85;19.00;;;;;;;;;;6246899;23;20020;-65
2022/11/13 05:00:08;;;;;;;34.83;19.13;;;;;;;;;;6246812;23;20035;-69
2022/11/13 05:02:34;;;;;;;36.85;20.95;;;;;;;;;;6219815;23;20023;-65
2022/11/13 05:05:00;;;;;;;30.50;20.15;;;;;;;;;;6193801;23;20038;-65
2022/11/13 05:07:27;;;;;;;36.97;22.02;;;;;;;;;;6220119;23;20095;-65
2022/11/13 05:09:53;;;;;;;32.83;20.30;;;;;;;;;;6219413;23;20012;-65
2022/11/13 05:12:19;;;;;;;33.78;20.63;;;;;;;;;;6246969;23;20382;-65
2022/11/13 05:14:45;;;;;;;32.92;19.10;;;;;;;;;;6219788;23;20023;-65
2022/11/13 05:17:12;;;;;;;32.45;20.13;;;;;;;;;;6219427;23;20024;-65
2022/11/13 05:19:38;;;;;;;27.17;18.33;;;;;;;;;;6219480;23;20498;-65
2022/11/13 05:22:05;;;;;;;30.27;18.42;;;;;;;;;;6219835;23;20039;-65
2022/11/13 05:24:31;;;;;;;30.65;18.30;;;;;;;;;;6219439;23;20015;-65
2022/11/13 05:26:57;;;;;;;27.60;18.15;;;;;;;;;;6246336;23;20016;-65
2022/11/13 05:29:23;;;;;;;33.28;19.05;;;;;;;;;;6246672;23;20013;-65
2022/11/13 05:31:50;;;;;;;29.40;20.20;;;;;;;;;;6194373;23;20019;-65
2022/11/13 05:34:16;;;;;;;31.30;21.63;;;;;;;;;;6219862;23;20019;-65
2022/11/13 05:36:42;;;;;;;28.98;18.67;;;;;;;;;;6194416;23;20016;-65
2022/11/13 05:39:08;;;;;;;32.75;18.60;;;;;;;;;;6246231;23;20016;-65
2022/11/13 05:41:34;;;;;;;30.13;19.52;;;;;;;;;;6246587;23;20023;-65
2022/11/13 05:44:00;;;;;;;28.30;19.17;;;;;;;;;;6219290;23;20442;-65
2022/11/13 05:46:27;;;;;;;31.67;19.27;;;;;;;;;;6246282;23;20016;-65
2022/11/13 05:49:00;;;;;;;32.53;19.90;;;;;;;;;;6219322;23;20012;-65
2022/11/13 05:51:28;;;;;;;32.45;19.77;;;;;;;;;;6219423;23;20070;-65
2022/11/13 05:53:54;;;;;;;32.40;20.00;;;;;;;;;;6219412;23;20035;-65
2022/11/13 05:56:20;;;;;;;30.70;18.73;;;;;;;;;;6219170;23;20008;-65
2022/11/13 05:58:47;;;;;;;32.00;19.15;;;;;;;;;;6219276;23;20439;-65
2022/11/13 06:01:13;;;;;;;31.35;19.73;;;;;;;;;;6194180;23;20013;-65
2022/11/13 06:03:39;;;;;;;30.40;19.98;;;;;;;;;;6219686;23;20016;-65
2022/11/13 06:06:09;;;;;;;31.10;20.35;;;;;;;;;;6246227;23;20008;-65
2022/11/13 06:08:35;;;;;;;35.88;20.13;;;;;;;;;;6245995;22;20477;-65
2022/11/13 06:11:03;;;;;;;33.92;20.35;;;;;;;;;;6245902;23;20375;-65
2022/11/13 06:13:29;;;;;;;31.05;18.85;;;;;;;;;;6246353;23;20044;-65
2022/11/13 06:16:00;;;;;;;31.88;19.27;;;;;;;;;;6219116;23;20414;-65
2022/11/13 06:18:26;;;;;;;29.00;19.15;;;;;;;;;;6218974;23;20020;-65
2022/11/13 06:20:52;;;;;;;30.20;19.33;;;;;;;;;;6246050;23;20312;-65
2022/11/13 06:23:18;;;;;;;30.08;19.77;;;;;;;;;;6246034;23;20389;-65
2022/11/13 06:25:44;;;;;;;29.40;18.38;;;;;;;;;;6219084;23;20038;-65
2022/11/13 06:28:10;;;;;;;34.30;19.23;;;;;;;;;;6245775;23;20039;-65
2022/11/13 06:30:36;;;;;;;32.08;18.77;;;;;;;;;;6219184;23;20039;-65
2022/11/13 06:33:02;;;;;;;27.20;18.60;;;;;;;;;;6245754;23;20390;-65
2022/11/13 06:35:29;;;;;;;27.02;17.48;;;;;;;;;;6219008;23;20039;-65
2022/11/13 06:37:55;;;;;;;31.05;19.05;;;;;;;;;;6246025;23;20012;-65
2022/11/13 06:40:21;;;;;;;31.25;19.38;;;;;;;;;;6245897;23;20087;-65
2022/11/13 06:42:47;;;;;;;28.58;19.15;;;;;;;;;;6246056;23;20054;-65
2022/11/13 06:45:13;;;;;;;29.15;19.15;;;;;;;;;;6245744;23;20082;-65
2022/11/13 06:47:39;;;;;;;29.50;18.33;;;;;;;;;;6245711;23;20055;-65
2022/11/13 06:50:06;;;;;;;26.17;18.13;;;;;;;;;;6218990;23;20017;-65
2022/11/13 06:52:32;;;;;;;30.48;19.35;;;;;;;;;;6246263;23;20015;-65
2022/11/13 06:54:58;;;;;;;29.85;18.85;;;;;;;;;;6218917;23;20016;-65
2022/11/13 06:57:25;;;;;;;29.17;17.48;;;;;;;;;;6245636;23;20020;-65
2022/11/13 06:59:51;;;;;;;29.42;17.85;;;;;;;;;;6246044;23;20023;-65
2022/11/13 07:02:17;;;;;;;30.83;19.23;;;;;;;;;;6219192;23;20503;-65
2022/11/13 07:04:43;;;;;;;30.50;19.13;;;;;;;;;;6219490;23;20031;-65
2022/11/13 07:07:09;;;;;;;30.67;18.00;;;;;;;;;;6245833;23;20012;-65
2022/11/13 07:09:35;;;;;;;29.55;20.02;;;;;;;;;;6219037;23;20012;-65
2022/11/13 07:12:01;;;;;;;29.90;18.60;;;;;;;;;;6245824;23;20012;-67
2022/11/13 07:14:27;;;;;;;31.30;20.48;;;;;;;;;;6218734;23;20051;-64
2022/11/13 07:16:53;;;;;;;28.98;18.67;;;;;;;;;;6246286;23;20012;-64
2022/11/13 07:19:19;;;;;;;29.83;19.30;;;;;;;;;;6193804;23;20051;-65
2022/11/13 07:21:45;;;;;;;30.48;19.13;;;;;;;;;;6219245;23;20020;-65
2022/11/13 07:24:11;;;;;;;30.70;19.90;;;;;;;;;;6244733;23;20016;-68
2022/11/13 07:26:37;;;;;;;28.20;17.67;;;;;;;;;;6245445;23;20027;-67
2022/11/13 07:29:03;;;;;;;30.73;18.20;;;;;;;;;;6218541;23;20012;-67
2022/11/13 07:31:29;;;;;;;30.23;18.80;;;;;;;;;;6245880;23;20019;-67
2022/11/13 07:33:55;;;;;;;35.60;19.65;;;;;;;;;;6195531;23;20016;-68
2022/11/13 07:36:21;;;;;;;34.92;19.60;;;;;;;;;;6220705;23;20011;-68
2022/11/13 07:38:47;;;;;;;29.73;18.70;;;;;;;;;;6220583;23;20042;-67
2022/11/13 07:41:13;;;;;;;32.08;19.73;;;;;;;;;;6247453;23;20023;-67
2022/11/13 07:43:39;;;;;;;33.13;19.40;;;;;;;;;;6220304;23;20018;-67
2022/11/13 07:46:06;;;;;;;32.35;19.33;;;;;;;;;;6247720;23;20079;-68
2022/11/13 07:48:32;;;;;;;35.03;20.40;;;;;;;;;;6247195;23;20020;-68
2022/11/13 07:51:01;;;;;;;28.23;18.23;;;;;;;;;;6220556;23;20016;-68
2022/11/13 07:53:27;;;;;;;34.00;20.15;;;;;;;;;;6247687;23;20019;-68
2022/11/13 07:55:53;;;;;;;33.65;20.15;;;;;;;;;;6247622;23;20383;-68
2022/11/13 07:58:19;;;;;;;31.58;19.73;;;;;;;;;;6220517;23;20088;-67
2022/11/13 08:00:45;;;;;;;33.67;18.30;;;;;;;;;;6220375;23;20103;-68
2022/11/13 08:03:13;;;;;;;29.15;18.90;;;;;;;;;;6220234;23;20457;-68
2022/11/13 08:05:40;;;;;;;30.98;18.88;;;;;;;;;;6220319;23;20016;-68
2022/11/13 08:08:06;;;;;;;30.02;19.45;;;;;;;;;;6219880;23;20020;-68
2022/11/13 08:10:32;;;;;;;33.50;18.60;;;;;;;;;;6220188;23;20070;-68
2022/11/13 08:13:05;;;;;;;30.35;19.27;;;;;;;;;;6220149;23;20016;-68
2022/11/13 08:15:31;;;;;;;30.38;19.55;;;;;;;;;;6247346;23;20023;-68
2022/11/13 08:17:58;;;;;;;29.63;18.88;;;;;;;;;;6220195;23;20024;-68
2022/11/13 08:20:24;;;;;;;32.28;19.83;;;;;;;;;;6220229;23;20020;-69
2022/11/13 08:22:51;;;;;;;28.98;19.42;;;;;;;;;;6247173;23;20016;-68
2022/11/13 08:25:17;;;;;;;32.80;19.63;;;;;;;;;;6195082;23;20403;-68
2022/11/13 08:27:43;;;;;;;33.92;19.63;;;;;;;;;;6246948;23;20020;-68
2022/11/13 08:30:10;;;;;;;30.98;20.08;;;;;;;;;;6220075;23;20024;-68
2022/11/13 08:32:36;;;;;;;34.72;19.60;;;;;;;;;;6220047;23;20411;-68
2022/11/13 08:35:02;;;;;;;29.98;18.80;;;;;;;;;;6219743;23;20090;-68
2022/11/13 08:37:28;;;;;;;34.30;18.95;;;;;;;;;;6194785;23;20016;-68
2022/11/13 08:39:54;;;;;;;28.88;19.33;;;;;;;;;;6245636;23;20446;-65
2022/11/13 08:42:20;;;;;;;31.85;19.38;;;;;;;;;;6220054;23;20087;-65
2022/11/13 08:44:46;;;;;;;31.65;19.77;;;;;;;;;;6219504;23;20091;-65
2022/11/13 08:47:12;;;;;;;33.13;19.73;;;;;;;;;;6246504;23;20019;-65
2022/11/13 08:49:38;;;;;;;33.55;19.60;;;;;;;;;;6219675;23;20442;-65
2022/11/13 08:52:04;;;;;;;31.88;19.55;;;;;;;;;;6220032;23;20039;-65
2022/11/13 08:54:30;;;;;;;31.92;18.65;;;;;;;;;;6219712;23;20061;-65
2022/11/13 08:56:57;;;;;;;29.67;19.00;;;;;;;;;;6219931;23;20083;-65
2022/11/13 08:59:23;;;;;;;34.58;19.55;;;;;;;;;;6246337;23;20512;-65
2022/11/13 09:01:52;;;;;;;32.35;19.20;;;;;;;;;;6246975;23;20019;-65
2022/11/13 09:04:18;;;;;;;29.90;19.35;;;;;;;;;;6170174;23;20012;-66
2022/11/13 09:06:44;;;;;;;31.73;20.42;;;;;;;;;;6169786;23;20023;-65
2022/11/13 09:09:10;;;;;;;33.97;19.45;;;;;;;;;;6169236;23;20134;-65
2022/11/13 09:11:36;;;;;;;31.48;19.38;;;;;;;;;;6194448;23;20016;-65
2022/11/13 09:14:03;;;;;;;32.50;20.27;;;;;;;;;;6246448;23;20338;-66
2022/11/13 09:16:29;;;;;;;31.67;19.90;;;;;;;;;;6246323;23;20008;-65
2022/11/13 09:18:55;;;;;;;31.15;20.33;;;;;;;;;;6219364;23;20605;-65
2022/11/13 09:21:21;;;;;;;33.47;20.38;;;;;;;;;;6246579;23;20390;-65
2022/11/13 09:23:47;;;;;;;33.15;19.40;;;;;;;;;;6219568;23;20012;-65
2022/11/13 09:26:13;;;;;;;28.90;19.58;;;;;;;;;;6244432;23;20008;-65
2022/11/13 09:28:39;;;;;;;30.30;18.85;;;;;;;;;;6243736;23;20023;-65
2022/11/13 09:31:06;;;;;;;26.75;18.63;;;;;;;;;;6217048;23;20023;-66
2022/11/13 09:33:33;;;;;;;31.23;19.60;;;;;;;;;;6217044;23;20016;-66
2022/11/13 09:35:59;;;;;;;29.35;18.88;;;;;;;;;;6217101;23;20044;-65
2022/11/13 09:38:25;;;;;;;31.05;18.50;;;;;;;;;;6246598;23;20016;-65
2022/11/13 09:41:04;;;;;;;28.67;19.05;;;;;;;;;;6246426;23;20051;-65
2022/11/13 09:43:49;;;;;;;23.75;16.98;;;;;;;;;;6219608;23;20016;-65
2022/11/13 09:46:28;;;;;;;28.35;17.30;;;;;;;;;;6246139;23;20022;-65
2022/11/13 09:48:56;;;;;;;36.38;17.42;;;;;;;;;;6219387;23;20039;-65
2022/11/13 09:51:28;;;;;;;25.33;16.52;;;;;;;;;;6245943;23;20019;-65
2022/11/13 09:53:54;;;;;;;26.23;17.40;;;;;;;;;;6246131;23;20457;-65
2022/11/13 09:56:23;;;;;;;26.52;17.75;;;;;;;;;;6193845;23;20016;-65
2022/11/13 09:59:08;;;;;;;29.08;16.90;;;;;;;;;;6219310;23;20039;-65
2022/11/13 10:02:09;;;;;;;24.85;16.45;;;;;;;;;;6246334;23;20012;-66
2022/11/13 10:04:35;;;;;;;22.63;15.85;;;;;;;;;;6099340;23;20022;-65
2022/11/13 10:07:13;;;;;;;23.30;15.48;;;;;;;;;;6194474;23;20024;-65
2022/11/13 10:09:55;;;;;;;25.05;15.13;;;;;;;;;;6218787;23;20027;-65
2022/11/13 10:12:21;;;;;;;23.65;15.75;;;;;;;;;;6245532;23;20016;-66
2022/11/13 10:14:49;;;;;;;23.98;15.30;;;;;;;;;;6246094;23;20047;-65
2022/11/13 10:17:18;;;;;;;22.73;14.98;;;;;;;;;;6244783;23;20073;-65
2022/11/13 10:19:57;;;;;;;22.65;15.30;;;;;;;;;;6245555;23;20116;-65
2022/11/13 10:22:47;;;;;;;21.17;14.82;;;;;;;;;;6218995;23;20008;-66
2022/11/13 10:25:21;;;;;;;21.30;14.45;;;;;;;;;;6203833;23;20043;-66
2022/11/13 10:27:53;;;;;;;23.58;14.25;;;;;;;;;;6218656;23;20020;-66
2022/11/13 10:30:19;;;;;;;;;;;;;;;;;;6246124;23;20457;-66
2022/11/13 10:32:46;;;;;;;21.92;13.27;;;;;;;;;;6245792;23;19911;-66
2022/11/13 10:35:12;;;;;;;21.77;13.02;;;;;;;;;;6218903;23;20012;-66
2022/11/13 10:37:47;;;;;;;20.38;12.85;;;;;;;;;;6193791;23;20012;-66
2022/11/13 10:40:23;;;;;;;17.33;12.48;;;;;;;;;;6245669;23;20091;-66
2022/11/13 10:42:49;;;;;;;17.58;12.38;;;;;;;;;;6245481;23;20012;-66
2022/11/13 10:45:16;;;;;;;18.55;11.40;;;;;;;;;;6218971;23;20016;-66
2022/11/13 10:47:46;;;;;;;15.38;11.32;;;;;;;;;;6193807;23;20027;-66
2022/11/13 10:50:18;;;;;;;15.77;11.65;;;;;;;;;;6218507;23;20083;-66
2022/11/13 10:52:47;;;;;;;16.45;11.07;;;;;;;;;;6245887;23;20012;-66
2022/11/13 10:55:35;;;;;;;19.63;12.38;;;;;;;;;;6245976;23;20016;-66
2022/11/13 10:58:02;;;;;;;20.40;12.07;;;;;;;;;;6218609;23;20020;-66
2022/11/13 11:00:33;;;;;;;16.80;11.82;;;;;;;;;;6246080;23;20047;-66
2022/11/13 11:02:59;;;;;;;19.50;12.25;;;;;;;;;;6218867;23;20442;-66
2022/11/13 11:05:25;;;;;;;15.60;10.50;;;;;;;;;;6218885;23;20473;-66
2022/11/13 11:07:53;;;;;;;16.50;11.02;;;;;;;;;;6219806;22;20020;-66
2022/11/13 11:10:25;;;;;;;15.20;9.68;;;;;;;;;;6247322;23;20043;-68
2022/11/13 11:12:52;;;;;;;15.90;9.75;;;;;;;;;;6220427;23;20016;-69
2022/11/13 11:15:21;;;;;;;15.57;9.57;;;;;;;;;;6220691;23;20012;-69
2022/11/13 11:17:57;;;;;;;14.73;9.23;;;;;;;;;;6247372;23;20020;-69
2022/11/13 11:20:39;;;;;;;15.00;10.18;;;;;;;;;;6245624;23;20454;-69
2022/11/13 11:23:08;;;;;;;16.90;10.48;;;;;;;;;;6195379;23;20500;-69
2022/11/13 11:25:41;;;;;;;12.95;8.77;;;;;;;;;;6247354;23;20027;-69
2022/11/13 11:28:17;;;;;;;;;;;12.20;99.90;;;;;;6247984;23;20091;-69
2022/11/13 11:30:46;;;;;;;12.82;8.45;;;;;;;;;;6220331;23;19918;-69
2022/11/13 11:33:16;;;;;;;16.63;8.68;;;;;;;;;;6220453;23;20016;-69
2022/11/13 11:35:52;;;;;;;14.65;8.73;;;;;;;;;;6220324;23;20016;-69
2022/11/13 11:38:37;;;;;;;10.40;8.23;;;;;;;;;;6248028;23;20016;-69
2022/11/13 11:41:09;;;;;;;14.23;8.45;;;;;;;;;;6220049;23;20115;-69
2022/11/13 11:43:51;;;;;;;10.32;7.32;;;;;;;;;;6247004;23;20016;-66
2022/11/13 11:46:21;;;;;;;11.63;8.30;;;;;;;;;;6220190;23;20016;-66
2022/11/13 11:48:47;;;;;;;13.73;8.50;;;;;;;;;;6219789;23;20266;-66
2022/11/13 11:51:25;;;;;;;13.02;8.05;;;;;;;;;;6220075;23;20039;-66
2022/11/13 11:54:30;;;;;;;11.35;8.38;;;;;;;;;;6220076;23;20339;-66
2022/11/13 11:57:09;;;;;;;11.57;7.72;;;;;;;;;;6099968;23;20025;-66
2022/11/13 11:59:54;;;;;;;11.38;8.02;;;;;;;;;;6100454;23;20022;-66
2022/11/13 12:02:32;;;;;;;13.68;8.20;;;;;;;;;;6209222;23;20070;-66
2022/11/13 12:05:10;;;;;;;11.35;7.90;;;;;;;;;;6220808;23;20016;-67
2022/11/13 12:07:50;;;;;;;12.45;8.23;;;;;;;;;;6220102;22;20030;-66
2022/11/13 12:10:22;;;;;;;11.10;7.72;;;;;;;;;;6247237;23;20016;-66
2022/11/13 12:12:57;;;;;;;16.95;8.68;;;;;;;;;;6246712;23;20016;-66
2022/11/13 12:15:28;;;;;;;14.15;8.45;;;;;;;;;;6247097;23;20012;-66
2022/11/13 12:18:01;;;;;;;14.65;9.05;;;;;;;;;;6246364;23;20450;-67
2022/11/13 12:20:53;;;;;;;13.15;9.07;;;;;;;;;;6219872;23;20023;-66
2022/11/13 12:23:38;;;;;;;13.40;8.67;;;12.80;99.90;;;;;;6220432;23;20369;-67
2022/11/13 12:26:17;;;;;;;13.70;8.73;;;;;;;;;;6219460;23;20016;-66
2022/11/13 12:28:45;;;;;;;14.45;8.65;;;;;;;;;;6246730;23;20020;-67
2022/11/13 12:31:11;;;;;;;10.93;8.25;;;;;;;;;;6244924;23;20019;-66
2022/11/13 12:33:52;;;;;;;11.38;8.43;;;;;;;;;;6246850;23;20012;-66
2022/11/13 12:36:19;;;;;;;11.70;7.97;;;;;;;;;;6218326;23;20017;-66
2022/11/13 12:38:48;;;;;;;9.93;8.30;;;;;;;;;;6219718;23;20446;-66
2022/11/13 12:41:14;;;;;;;12.00;7.82;;;;;;;;;;6219562;23;20465;-66
2022/11/13 12:43:43;;;;;;;13.43;7.53;;;;;;;;;;6219604;23;20035;-66
2022/11/13 12:46:10;;;;;;;10.65;8.05;;;;;;;;;;6219491;23;20054;-66
2022/11/13 12:48:41;;;;;;;16.42;8.13;;;;;;;;;;6219500;23;20022;-66
2022/11/13 12:51:09;;;;;;;11.82;7.88;;;;;;;;;;6219571;23;20087;-66
2022/11/13 12:53:48;;;;;;;11.52;7.70;;;;;;;;;;6219427;23;20019;-66
2022/11/13 12:56:16;;;;;;;10.93;7.05;;;;;;;;;;6219699;23;20330;-66
2022/11/13 12:58:51;;;;;;;9.32;7.00;;;;;;;;;;6246702;23;20142;-67
2022/11/13 13:01:18;;;;;;;10.27;7.40;;;;;;;;;;6246054;23;20008;-70
2022/11/13 13:03:58;;;;;;;13.43;7.15;;;;;;;;;;6219362;23;20158;-66
2022/11/13 13:06:29;;;;;;;12.18;7.38;;;;;;;;;;6246256;23;20020;-66
2022/11/13 13:09:05;;;;;;;11.90;7.45;;;;;;;;;;6246403;22;20350;-66
2022/11/13 13:11:37;;;;;;;9.23;6.80;;;;;;;;;;6246646;23;20014;-66
2022/11/13 13:14:18;;;;;;;11.35;7.10;;;;;;;;;;6245033;23;20016;-66
2022/11/13 13:16:44;;;;;;;9.90;7.35;;;;;;;;;;6219450;23;20015;-67
2022/11/13 13:19:23;;;;;;;10.00;6.68;;;;;;;;;;6242753;23;20082;-65
2022/11/13 13:21:49;;;;;;;12.18;7.22;;;;;;;;;;6246305;23;20018;-66
2022/11/13 13:24:35;;;;;;;10.98;7.30;;;;;;;;;;6219170;23;20138;-66
2022/11/13 13:27:01;;;;;;;13.05;7.05;;;;;;;;;;6246130;23;20051;-66
2022/11/13 13:29:28;;;;;;;13.65;7.03;;;;;;;;;;6245938;23;20016;-66
2022/11/13 13:32:00;;;;;;;10.32;6.90;;;;;;;;;;6245891;23;20016;-67
2022/11/13 13:34:29;;;;;;;11.13;7.15;;;;;;;;;;6246292;23;20008;-66
2022/11/13 13:37:00;;;;;;;10.93;6.80;;;;;;;;;;6246245;23;20026;-66
2022/11/13 13:39:34;;;;;;;11.13;6.88;;;;;;;;;;6219087;23;20525;-66
2022/11/13 13:42:15;;;;;;;10.15;7.03;;;;;;;;;;6219301;23;20446;-66
2022/11/13 13:44:45;;;;;;;13.38;7.63;;;;;;;;;;6244552;23;20047;-67
2022/11/13 13:47:37;;;;;;;10.70;7.18;;;;;;;;;;6216477;23;20050;-67
2022/11/13 13:50:08;;;;;;;12.32;7.82;;;;;;;;;;6203836;23;20342;-67
2022/11/13 13:52:35;;;;;;;11.75;7.10;;;;;;;;;;6245580;23;20016;-66
2022/11/13 13:55:03;;;;;;;10.98;7.68;;;;;;;;;;6217139;23;20443;-66
2022/11/13 13:57:29;;;;;;;12.10;7.95;;;;;;;;;;6219216;23;20043;-66
2022/11/13 13:59:56;;;;;;;11.88;7.75;;;;;;;;;;6219272;23;20027;-66
2022/11/13 14:02:23;;;;;;;11.07;7.75;;;;;;;;;;6219076;23;20024;-66
2022/11/13 14:04:53;;;;;;;13.85;8.25;;;;;;;;;;6246372;23;20016;-67
2022/11/13 14:07:19;;;;;;;14.23;8.43;;;;;;;;;;6245860;23;20020;-67
2022/11/13 14:09:45;;;;;;;12.27;8.52;;;;;;;;;;6218845;23;20497;-67
2022/11/13 14:12:19;;;;;;;14.57;9.15;;;;;;;;;;6219374;23;20016;-68
2022/11/13 14:14:45;;;;;;;15.35;9.52;;;;;;;;;;6218746;23;20020;-69
2022/11/13 14:17:12;;;;;;;14.55;8.55;;;;;;;;;;6218723;23;20087;-70
2022/11/13 14:19:38;;;;;;;14.68;9.90;;;;;;;;;;6245578;23;20016;-67
2022/11/13 14:22:05;;;;;;;17.58;9.60;;;;;;;;;;6219008;23;20054;-66
2022/11/13 14:24:33;;;;;;;14.90;9.27;;;;;;;;;;6245763;23;20446;-66
2022/11/13 14:27:01;;;;;;;14.13;9.27;;;;;;;;;;6219012;23;20024;-67
2022/11/13 14:29:27;;;;;;;14.88;9.73;;;;;;;;;;6218765;23;20019;-66